Anthem, Arizona
Current Conditions -  °F | °C
As of 6:53 PM on Monday 24 Nov 2014 (Local Time) from KDVT Reporting Station
Clear Clear  
Wind Chill: 18°   Ceiling: Unl
Heat Index: 18°   Visibility: 10mi
Dew Point: -19°   Wind: 15mph
Humidity: 7%   Direction: 350°N
Pressure: 30.19"   Gusts: 23mph
Location:  33.8348°N, 112.071°W
Report Text: KDVT 250153Z 35013G20KT 10SM CLR 18/M19 A3019 RMK AO2 SLP213 T01831194
Loading
Personal Weather Stations






























Interactive Weather Map New forecast layout! Learn more

10-Day Weather Forecast

Advertisements
Track Severe Weather on mobile